X  Blizu METAR Podaci o vazduhoplovstvu        LGTS Thessaloniki Macedonia International
Temperatura
36°C Temperatura
18°C Tačka Rose
35% Vlaga



Vetar
22 KM/S
14 MPS
6 M/S
12 Čvorovi



190°
J
Trenutna situacija

Mostly Sunny Uglavnom sunčano
Vazdušni pritisak 1006 (hPa) - 29.7 (inHg)
Vidljivost 6 (Milje) - 10 (km)
Aerodrom
Aerodromski kod. LGTS

Lokacija: Thessaloniki Macedonia International
Udaljenost: 85 (km)

Metar:
METAR LGTS 201450Z 19012KT 9999 FEW025 36/18 Q1006 NOSIG

Vreme: 20-07-2024 17:50 EEST